createdAt,value
2023-04-13T00:01:08.872Z,99956.13
2023-04-13T00:03:10.847Z,99954.31
2023-04-13T00:05:12.530Z,99956.69
2023-04-13T00:07:15.814Z,99960.09
2023-04-13T00:09:17.854Z,99952.66
2023-04-13T00:11:19.507Z,99964.00
2023-04-13T00:13:21.375Z,99959.25
2023-04-13T00:15:23.124Z,99956.16
2023-04-13T00:17:26.314Z,99968.56
2023-04-13T00:19:27.930Z,99973.03
2023-04-13T00:21:30.217Z,99969.94
2023-04-13T00:23:35.290Z,99974.81
2023-04-13T00:25:37.314Z,99977.38
2023-04-13T00:27:39.378Z,99985.16
2023-04-13T00:29:41.043Z,99985.63
2023-04-13T00:31:43.124Z,99982.75
2023-04-13T00:33:45.183Z,99973.63
2023-04-13T00:35:47.119Z,99982.00
2023-04-13T00:37:49.365Z,99988.97
2023-04-13T00:39:52.559Z,99980.69
2023-04-13T00:41:54.648Z,99979.00
2023-04-13T00:43:56.727Z,99985.97
2023-04-13T00:45:58.723Z,99981.56
2023-04-13T00:48:00.675Z,99980.16
2023-04-13T00:50:03.834Z,99986.88
2023-04-13T00:52:06.229Z,99977.50
2023-04-13T00:54:07.981Z,99982.56
2023-04-13T00:56:11.306Z,99984.66
2023-04-13T00:58:13.673Z,99977.81
2023-04-13T01:00:19.295Z,99982.03
2023-04-13T01:02:22.158Z,99980.59
2023-04-13T01:04:25.097Z,99975.63
2023-04-13T01:06:43.304Z,99976.88
2023-04-13T01:08:52.951Z,99969.44
2023-04-13T01:10:59.726Z,99967.38
2023-04-13T01:13:10.933Z,99967.84
2023-04-13T01:15:15.948Z,99962.78
2023-04-13T01:17:23.588Z,99958.66
2023-04-13T01:19:42.332Z,99959.69
2023-04-13T01:21:44.427Z,99959.56
2023-04-13T01:23:56.727Z,99957.06
2023-04-13T01:26:03.189Z,99960.00
2023-04-13T01:28:09.162Z,99952.91
2023-04-13T01:30:12.022Z,99943.09
2023-04-13T01:32:17.576Z,99948.72
2023-04-13T01:34:22.917Z,99947.31
2023-04-13T01:36:25.402Z,99959.00
2023-04-13T01:38:27.044Z,99963.59
2023-04-13T01:40:30.246Z,99973.88
2023-04-13T01:42:31.866Z,99970.34
2023-04-13T01:44:35.748Z,99971.38
2023-04-13T01:46:40.621Z,99968.91
2023-04-13T01:48:47.041Z,99972.41
2023-04-13T01:50:54.752Z,99984.56
2023-04-13T01:53:01.317Z,99995.66
2023-04-13T01:55:05.597Z,99996.72
2023-04-13T01:57:08.428Z,100001.34
2023-04-13T01:59:10.963Z,100001.53
2023-04-13T02:01:14.545Z,99998.00
2023-04-13T02:03:16.364Z,100002.63
2023-04-13T02:05:18.389Z,100004.50
2023-04-13T02:07:20.038Z,100010.97
2023-04-13T02:09:21.971Z,100020.16
2023-04-13T02:11:23.766Z,100014.97
2023-04-13T02:13:25.652Z,100019.56
2023-04-13T02:15:27.444Z,100015.19
2023-04-13T02:17:31.101Z,100013.50
2023-04-13T02:19:32.750Z,100018.94
2023-04-13T02:21:34.444Z,100013.50
2023-04-13T02:23:37.488Z,100018.13
2023-04-13T02:25:39.128Z,100015.41
2023-04-13T02:27:41.434Z,100020.84
2023-04-13T02:29:43.349Z,100022.75
2023-04-13T02:31:45.273Z,100024.63
2023-04-13T02:33:48.793Z,100039.03
2023-04-13T02:35:50.491Z,100031.69
2023-04-13T02:37:52.397Z,100035.25
2023-04-13T02:39:54.779Z,100043.41
2023-04-13T02:41:56.644Z,100056.78
2023-04-13T02:43:58.520Z,100051.34
2023-04-13T02:46:00.718Z,100058.66
2023-04-13T02:48:03.207Z,100070.34
2023-04-13T02:50:07.958Z,100072.03
2023-04-13T02:52:09.768Z,100070.16
2023-04-13T02:54:11.447Z,100067.44
2023-04-13T02:56:13.513Z,100065.53
2023-04-13T02:58:15.151Z,100061.75
2023-04-13T03:00:18.129Z,100067.00
2023-04-13T03:02:22.352Z,100075.97
2023-04-13T03:04:24.847Z,100079.50
2023-04-13T03:06:28.606Z,100079.50
2023-04-13T03:08:30.286Z,100074.91
2023-04-13T03:10:32.262Z,100071.97
2023-04-13T03:12:34.800Z,100069.25
2023-04-13T03:14:36.971Z,100068.41
2023-04-13T03:16:39.056Z,100073.66
2023-04-13T03:18:42.105Z,100088.88
2023-04-13T03:20:43.840Z,100074.44
2023-04-13T03:22:49.633Z,100084.28
2023-04-13T03:24:52.286Z,100084.28
2023-04-13T03:26:54.780Z,100067.97
2023-04-13T03:28:56.683Z,100078.63
2023-04-13T03:30:58.666Z,100077.59
2023-04-13T03:33:00.542Z,100074.63
2023-04-13T03:35:02.470Z,100083.63
2023-04-13T03:37:04.167Z,100086.34
2023-04-13T03:39:07.364Z,100091.56
2023-04-13T03:41:09.330Z,100101.59
2023-04-13T03:43:11.241Z,100095.09
2023-04-13T03:45:13.103Z,100098.44
2023-04-13T03:47:14.989Z,100092.16
2023-04-13T03:49:17.029Z,100091.13
2023-04-13T03:51:18.924Z,100086.72
2023-04-13T03:53:20.566Z,100091.97
2023-04-13T03:55:24.008Z,100085.69
2023-04-13T03:57:25.645Z,100101.75
2023-04-13T03:59:27.246Z,100095.47
2023-04-13T04:01:29.038Z,100099.88
2023-04-13T04:03:30.966Z,100101.53
2023-04-13T04:05:33.059Z,100099.66
2023-04-13T04:07:34.843Z,100101.34
2023-04-13T04:09:36.941Z,100106.78
2023-04-13T04:11:40.480Z,100111.97
2023-04-13T04:13:42.677Z,100124.50
2023-04-13T04:15:44.731Z,100121.78
2023-04-13T04:17:46.628Z,100137.88
2023-04-13T04:19:48.618Z,100134.09
2023-04-13T04:21:50.699Z,100141.22
2023-04-13T04:23:52.389Z,100155.63
2023-04-13T04:25:54.518Z,100153.75
2023-04-13T04:27:57.748Z,100151.03
2023-04-13T04:29:59.630Z,100147.47
2023-04-13T04:32:02.055Z,100153.50
2023-04-13T04:34:04.657Z,100152.09
2023-04-13T04:36:07.499Z,100160.25
2023-04-13T04:38:09.377Z,100160.44
2023-04-13T04:40:11.715Z,100174.28
2023-04-13T04:42:14.215Z,100178.88
2023-04-13T04:44:18.137Z,100190.78
2023-04-13T04:46:19.994Z,100191.03
2023-04-13T04:48:22.108Z,100184.13
2023-04-13T04:50:27.702Z,100187.06
2023-04-13T04:52:36.506Z,100198.16
2023-04-13T04:54:38.790Z,100193.75
2023-04-13T04:56:40.623Z,100193.16
2023-04-13T04:58:42.513Z,100196.91
2023-04-13T05:01:01.251Z,100190.88
2023-04-13T05:03:03.729Z,100197.56
2023-04-13T05:05:06.340Z,100195.91
2023-04-13T05:07:08.425Z,100190.69
2023-04-13T05:09:10.026Z,100203.44
2023-04-13T05:11:11.908Z,100201.75
2023-04-13T05:13:13.583Z,100206.38
2023-04-13T05:15:15.385Z,100203.03
2023-04-13T05:17:18.960Z,100205.75
2023-04-13T05:19:20.726Z,100213.91
2023-04-13T05:21:22.637Z,100213.31
2023-04-13T05:23:24.945Z,100220.38
2023-04-13T05:25:26.650Z,100217.06
2023-04-13T05:27:31.711Z,100216.22
2023-04-13T05:29:33.946Z,100218.09
2023-04-13T05:31:36.392Z,100215.19
2023-04-13T05:33:40.162Z,100222.06
2023-04-13T05:35:41.837Z,100233.56
2023-04-13T05:37:44.200Z,100224.13
2023-04-13T05:39:46.042Z,100228.72
2023-04-13T05:41:48.268Z,100228.72
2023-04-13T05:43:50.432Z,100242.91
2023-04-13T05:45:53.067Z,100242.91
2023-04-13T05:47:55.331Z,100243.75
2023-04-13T05:49:58.447Z,100242.72
2023-04-13T05:52:00.323Z,100243.75
2023-04-13T05:54:02.256Z,100247.09
2023-04-13T05:56:07.328Z,100255.25
2023-04-13T05:58:09.200Z,100258.19
2023-04-13T06:00:12.146Z,100251.91
2023-04-13T06:02:14.561Z,100258.41
2023-04-13T06:04:16.979Z,100256.94
2023-04-13T06:06:20.736Z,100255.69
2023-04-13T06:08:22.976Z,100257.75
2023-04-13T06:10:24.754Z,100256.25
2023-04-13T06:12:26.870Z,100257.94
2023-04-13T06:14:28.667Z,100267.53
2023-04-13T06:16:30.300Z,100266.28
2023-04-13T06:18:32.137Z,100275.88
2023-04-13T06:20:34.676Z,100279.19
2023-04-13T06:22:40.067Z,100277.13
2023-04-13T06:24:41.973Z,100281.28
2023-04-13T06:26:44.062Z,100281.06
2023-04-13T06:28:46.047Z,100292.97
2023-04-13T06:30:48.081Z,100292.78
2023-04-13T06:32:50.162Z,100296.09
2023-04-13T06:34:52.311Z,100290.66
2023-04-13T06:36:54.289Z,100297.97
2023-04-13T06:38:58.003Z,100301.78
2023-04-13T06:41:01.779Z,100301.78
2023-04-13T06:43:03.909Z,100306.38
2023-04-13T06:45:07.216Z,100301.34
2023-04-13T06:47:09.144Z,100303.84
2023-04-13T06:49:10.915Z,100314.72
2023-04-13T06:51:14.375Z,100312.00
2023-04-13T06:53:18.415Z,100317.25
2023-04-13T06:55:21.690Z,100318.09
2023-04-13T06:57:23.576Z,100334.16
2023-04-13T06:59:25.734Z,100327.47
2023-04-13T07:01:27.615Z,100333.31
2023-04-13T07:03:29.749Z,100341.91
2023-04-13T07:05:32.219Z,100345.81
2023-04-13T07:07:34.082Z,100349.38
2023-04-13T07:09:37.696Z,100356.41
2023-04-13T07:11:41.165Z,100352.84
2023-04-13T07:13:43.039Z,100355.97
2023-04-13T07:15:44.792Z,100353.66
2023-04-13T07:17:46.674Z,100360.31
2023-04-13T07:19:48.577Z,100372.63
2023-04-13T07:21:50.556Z,100367.00
2023-04-13T07:23:52.298Z,100364.88
2023-04-13T07:25:54.318Z,100363.59
2023-04-13T07:27:57.776Z,100363.38
2023-04-13T07:29:59.600Z,100371.34
2023-04-13T07:32:03.768Z,100376.34
2023-04-13T07:34:07.054Z,100373.19
2023-04-13T07:36:09.360Z,100374.00
2023-04-13T07:38:11.427Z,100377.13
2023-04-13T07:40:14.507Z,100377.53
2023-04-13T07:42:16.151Z,100383.34
2023-04-13T07:44:19.462Z,100378.50
2023-04-13T07:46:22.756Z,100375.38
2023-04-13T07:48:25.006Z,100377.22
2023-04-13T07:50:28.024Z,100376.75
2023-04-13T07:52:30.038Z,100376.94
2023-04-13T07:54:31.810Z,100385.25
2023-04-13T07:56:33.889Z,100377.28
2023-04-13T07:58:36.562Z,100382.06
2023-04-13T08:00:39.860Z,100384.34
2023-04-13T08:02:42.036Z,100392.44
2023-04-13T08:04:44.318Z,100388.22
2023-04-13T08:06:46.229Z,100390.28
2023-04-13T08:08:47.882Z,100399.69
2023-04-13T08:10:51.906Z,100399.03
2023-04-13T08:12:54.045Z,100396.06
2023-04-13T08:14:55.807Z,100397.28
2023-04-13T08:17:00.837Z,100396.81
2023-04-13T08:19:04.139Z,100397.84
2023-04-13T08:21:09.907Z,100390.03
2023-04-13T08:23:12.513Z,100388.53
2023-04-13T08:25:15.030Z,100387.06
2023-04-13T08:27:16.884Z,100390.56
2023-04-13T08:29:18.716Z,100392.38
2023-04-13T08:31:20.499Z,100394.16
2023-04-13T08:33:24.259Z,100394.72
2023-04-13T08:35:26.072Z,100389.19
2023-04-13T08:37:28.365Z,100388.88
2023-04-13T08:39:30.365Z,100392.97
2023-04-13T08:41:40.415Z,100393.47
2023-04-13T08:43:46.190Z,100392.13
2023-04-13T08:45:54.687Z,100401.41
2023-04-13T08:47:59.427Z,100404.69
2023-04-13T08:50:03.240Z,100399.47
2023-04-13T08:52:06.671Z,100402.13
2023-04-13T08:54:09.819Z,100400.97
2023-04-13T08:56:17.079Z,100403.59
2023-04-13T08:58:21.351Z,100409.34
2023-04-13T09:00:24.322Z,100409.25
2023-04-13T09:02:29.486Z,100411.66
2023-04-13T09:04:36.384Z,100401.81
2023-04-13T09:06:42.829Z,100407.53
2023-04-13T09:08:45.006Z,100408.38
2023-04-13T09:10:47.081Z,100395.44
2023-04-13T09:12:49.395Z,100392.94
2023-04-13T09:14:51.365Z,100393.91
2023-04-13T09:16:53.517Z,100411.84
2023-04-13T09:18:57.434Z,100416.56
2023-04-13T09:21:00.305Z,100414.81
2023-04-13T09:23:12.557Z,100429.53
2023-04-13T09:25:45.051Z,100429.28
2023-04-13T09:27:47.458Z,100430.22
2023-04-13T09:29:51.294Z,100421.88
2023-04-13T09:31:53.098Z,100426.31
2023-04-13T09:33:55.008Z,100434.72
2023-04-13T09:35:57.065Z,100434.44
2023-04-13T09:37:59.661Z,100431.16
2023-04-13T09:40:10.744Z,100438.59
2023-04-13T09:42:12.708Z,100438.31
2023-04-13T09:44:19.107Z,100442.16
2023-04-13T09:46:20.999Z,100441.34
2023-04-13T09:48:23.147Z,100453.69
2023-04-13T09:50:27.070Z,100447.88
2023-04-13T09:52:30.547Z,100451.53
2023-04-13T09:54:33.455Z,100457.09
2023-04-13T09:56:46.939Z,100447.88
2023-04-13T09:58:48.983Z,100447.03
2023-04-13T10:00:51.076Z,100458.59
2023-04-13T10:02:59.125Z,100458.34
2023-04-13T10:08:21.703Z,100460.91
2023-04-13T10:11:04.338Z,100465.91
2023-04-13T10:13:05.556Z,100478.94
2023-04-13T10:15:18.942Z,100475.44
2023-04-13T10:17:40.206Z,100479.34
2023-04-13T10:19:46.843Z,100475.03
2023-04-13T10:21:51.838Z,100469.59
2023-04-13T10:23:54.186Z,100479.56
2023-04-13T10:25:56.027Z,100478.22
2023-04-13T10:27:59.418Z,100476.66
2023-04-13T10:30:13.475Z,100480.28
2023-04-13T10:32:23.001Z,100484.19
2023-04-13T10:34:26.584Z,100486.41
2023-04-13T10:36:37.051Z,100481.00
2023-04-13T10:38:43.002Z,100489.41
2023-04-13T10:40:45.928Z,100486.47
2023-04-13T10:44:54.308Z,100493.50
2023-04-13T10:46:57.890Z,100485.31
2023-04-13T10:49:00.223Z,100494.19
2023-04-13T10:51:02.459Z,100499.50
2023-04-13T10:53:06.359Z,100496.22
2023-04-13T10:55:10.132Z,100498.53
2023-04-13T10:57:12.943Z,100490.38
2023-04-13T10:59:14.959Z,100482.81
2023-04-13T11:01:17.554Z,100490.06
2023-04-13T11:03:20.924Z,100489.94
2023-04-13T11:05:24.178Z,100489.72
2023-04-13T11:07:26.195Z,100492.06
2023-04-13T11:09:28.933Z,100493.75
2023-04-13T11:11:30.809Z,100491.53
2023-04-13T11:13:33.115Z,100498.47
2023-04-13T11:15:35.057Z,100502.34
2023-04-13T11:17:37.193Z,100504.28
2023-04-13T11:19:50.891Z,100492.25
2023-04-13T11:21:56.493Z,100499.69
2023-04-13T11:23:58.741Z,100493.69
2023-04-13T11:26:00.815Z,100496.53
2023-04-13T11:28:04.452Z,100509.81
2023-04-13T11:30:08.302Z,100507.41
2023-04-13T11:32:16.645Z,100505.28
2023-04-13T11:34:26.064Z,100508.13
2023-04-13T11:36:30.582Z,100512.84
2023-04-13T11:38:32.851Z,100502.69
2023-04-13T11:40:35.456Z,100498.31
2023-04-13T11:42:39.839Z,100503.59
2023-04-13T11:44:42.516Z,100503.94
2023-04-13T11:46:44.754Z,100496.22
2023-04-13T11:48:47.064Z,100498.41
2023-04-13T11:50:50.739Z,100511.13
2023-04-13T11:52:55.860Z,100509.16
2023-04-13T11:55:00.623Z,100512.78
2023-04-13T11:57:09.463Z,100503.66
2023-04-13T11:59:12.025Z,100508.69
2023-04-13T12:01:23.321Z,100510.59
2023-04-13T12:03:42.190Z,100518.88
2023-04-13T12:05:49.270Z,100510.06
2023-04-13T12:07:54.592Z,100518.88
2023-04-13T12:09:59.184Z,100521.41
2023-04-13T12:12:49.418Z,100517.50
2023-04-13T12:17:01.840Z,100532.72
2023-04-13T12:18:55.216Z,100534.34
2023-04-13T12:21:01.698Z,100522.78
2023-04-13T12:23:22.271Z,100524.94
2023-04-13T12:25:26.156Z,100530.78
2023-04-13T12:27:40.152Z,100532.94
2023-04-13T12:29:41.976Z,100536.81
2023-04-13T12:31:44.095Z,100537.91
2023-04-13T12:33:46.032Z,100549.75
2023-04-13T12:35:47.671Z,100542.53
2023-04-13T12:37:50.254Z,100541.44
2023-04-13T12:39:53.919Z,100545.56
2023-04-13T12:41:55.943Z,100557.16
2023-04-13T12:43:57.845Z,100552.97
2023-04-13T12:45:59.575Z,100552.69
2023-04-13T12:48:01.528Z,100557.34
2023-04-13T12:50:05.144Z,100568.66
2023-04-13T12:52:07.502Z,100569.16
2023-04-13T12:54:09.375Z,100561.44
2023-04-13T12:56:12.443Z,100567.47
2023-04-13T12:58:14.417Z,100558.69
2023-04-13T13:00:17.994Z,100577.41
2023-04-13T13:02:21.884Z,100571.00
2023-04-13T13:04:24.887Z,100568.25
2023-04-13T13:06:28.283Z,100577.84
2023-04-13T13:08:32.859Z,100581.41
2023-04-13T13:10:37.609Z,100595.47
2023-04-13T13:12:41.244Z,100584.41
2023-04-13T13:14:42.969Z,100598.72
2023-04-13T13:16:44.776Z,100596.22
2023-04-13T13:18:50.920Z,100595.66
2023-04-13T13:20:53.088Z,100589.06
2023-04-13T13:22:54.789Z,100585.72
2023-04-13T13:24:56.453Z,100599.50
2023-04-13T13:29:06.507Z,100597.88
2023-04-13T13:31:08.670Z,100594.59
2023-04-13T13:33:10.457Z,100597.34
2023-04-13T13:35:12.623Z,100596.31
2023-04-13T13:37:15.163Z,100601.56
2023-04-13T13:39:18.250Z,100599.94
2023-04-13T13:41:20.306Z,100598.31
2023-04-13T13:43:21.867Z,100599.97
2023-04-13T13:45:26.587Z,100598.63
2023-04-13T13:47:28.296Z,100596.69
2023-04-13T13:49:30.350Z,100590.13
2023-04-13T13:51:32.602Z,100605.03
2023-04-13T13:53:34.611Z,100604.22
2023-04-13T13:55:36.385Z,100600.41
2023-04-13T13:57:38.107Z,100594.91
2023-04-13T13:59:39.927Z,100591.06
2023-04-13T14:01:43.982Z,100597.41
2023-04-13T14:03:46.031Z,100592.19
2023-04-13T14:05:48.025Z,100594.97
2023-04-13T14:07:50.103Z,100603.28
2023-04-13T14:09:51.728Z,100606.06
2023-04-13T14:11:54.196Z,100600.81
2023-04-13T14:13:55.946Z,100596.13
2023-04-13T14:15:58.169Z,100596.97
2023-04-13T14:20:08.575Z,100598.09
2023-04-13T14:22:10.643Z,100597.28
2023-04-13T14:24:12.307Z,100603.09
2023-04-13T14:26:14.076Z,100594.84
2023-04-13T14:28:16.919Z,100611.13
2023-04-13T14:30:18.812Z,100607.56
2023-04-13T14:32:20.422Z,100610.88
2023-04-13T14:34:25.146Z,100610.03
2023-04-13T14:36:26.930Z,100616.41
2023-04-13T14:38:29.077Z,100622.78
2023-04-13T14:40:31.167Z,100625.81
2023-04-13T14:42:32.882Z,100621.13
2023-04-13T14:44:35.250Z,100627.19
2023-04-13T14:46:37.176Z,100627.47
2023-04-13T14:48:39.087Z,100626.06
2023-04-13T14:50:42.513Z,100620.28
2023-04-13T14:52:45.361Z,100624.44
2023-04-13T14:54:47.066Z,100636.31
2023-04-13T14:56:50.383Z,100621.66
2023-04-13T14:58:52.431Z,100621.13
2023-04-13T15:00:54.124Z,100617.28
2023-04-13T15:02:56.697Z,100619.75
2023-04-13T15:04:59.112Z,100619.75
2023-04-13T15:07:02.471Z,100626.09
2023-04-13T15:09:04.515Z,100620.03
2023-04-13T15:11:06.210Z,100630.78
2023-04-13T15:13:07.920Z,100637.97
2023-04-13T15:15:10.952Z,100627.47
2023-04-13T15:19:15.107Z,100641.84
2023-04-13T15:21:17.056Z,100638.53
2023-04-13T15:23:20.401Z,100648.50
2023-04-13T15:25:23.149Z,100643.78
2023-04-13T15:27:25.870Z,100649.88
2023-04-13T15:29:27.600Z,100652.06
2023-04-13T15:31:29.646Z,100653.50
2023-04-13T15:33:31.467Z,100653.22
2023-04-13T15:35:35.097Z,100647.44
2023-04-13T15:37:37.021Z,100648.53
2023-04-13T15:39:40.122Z,100662.34
2023-04-13T15:41:42.247Z,100659.56
2023-04-13T15:43:44.162Z,100665.63
2023-04-13T15:45:46.011Z,100657.34
2023-04-13T15:47:47.744Z,100669.81
2023-04-13T15:49:49.487Z,100671.47
2023-04-13T15:51:51.254Z,100677.00
2023-04-13T15:53:53.222Z,100666.22
2023-04-13T15:55:56.539Z,100671.16
2023-04-13T15:57:58.229Z,100672.84
2023-04-13T16:00:00.569Z,100679.44
2023-04-13T16:02:02.994Z,100681.63
2023-04-13T16:04:06.991Z,100673.63
2023-04-13T16:06:09.411Z,100679.97
2023-04-13T16:08:12.440Z,100672.78
2023-04-13T16:10:17.290Z,100678.28
2023-04-13T16:12:20.793Z,100688.78
2023-04-13T16:14:23.263Z,100690.69
2023-04-13T16:16:25.317Z,100690.38
2023-04-13T16:18:27.663Z,100693.13
2023-04-13T16:20:29.420Z,100699.97
2023-04-13T16:22:31.144Z,100689.16
2023-04-13T16:24:33.474Z,100700.72
2023-04-13T16:26:35.599Z,100702.03
2023-04-13T16:28:41.138Z,100698.66
2023-04-13T16:30:43.321Z,100701.41
2023-04-13T16:32:45.773Z,100698.63
2023-04-13T16:34:48.786Z,100696.66
2023-04-13T16:36:51.355Z,100705.72
2023-04-13T16:38:53.810Z,100714.81
2023-04-13T16:40:55.998Z,100718.38
2023-04-13T16:42:59.523Z,100725.75
2023-04-13T16:45:02.802Z,100732.91
2023-04-13T16:47:04.860Z,100733.13
2023-04-13T16:49:06.689Z,100735.28
2023-04-13T16:51:08.527Z,100732.50
2023-04-13T16:53:10.269Z,100740.72
2023-04-13T16:55:15.927Z,100751.69
2023-04-13T16:57:17.946Z,100766.25
2023-04-13T16:59:20.239Z,100776.94
2023-04-13T17:01:23.904Z,100779.88
2023-04-13T17:03:26.855Z,100784.53
2023-04-13T17:05:28.947Z,100792.72
2023-04-13T17:07:30.899Z,100774.22
2023-04-13T17:09:32.568Z,100771.44
2023-04-13T17:11:34.372Z,100778.53
2023-04-13T17:13:37.234Z,100781.22
2023-04-13T17:15:39.344Z,100791.09
2023-04-13T17:17:42.707Z,100780.03
2023-04-13T17:19:44.809Z,100790.97
2023-04-13T17:21:46.522Z,100787.06
2023-04-13T17:23:49.138Z,100792.84
2023-04-13T17:25:52.459Z,100789.84
2023-04-13T17:27:54.533Z,100791.75
2023-04-13T17:29:57.506Z,100795.63
2023-04-13T17:31:59.614Z,100794.94
2023-04-13T17:34:03.377Z,100815.00
2023-04-13T17:36:05.324Z,100805.84
2023-04-13T17:38:08.116Z,100815.38
2023-04-13T17:40:10.518Z,100815.78
2023-04-13T17:42:12.453Z,100830.25
2023-04-13T17:44:14.578Z,100834.22
2023-04-13T17:46:18.433Z,100846.50
2023-04-13T17:48:20.083Z,100840.56
2023-04-13T17:50:23.357Z,100838.84
2023-04-13T17:52:25.031Z,100839.00
2023-04-13T17:54:27.082Z,100847.44
2023-04-13T17:56:29.243Z,100848.69
2023-04-13T17:58:34.152Z,100853.50
2023-04-13T18:00:36.733Z,100851.16
2023-04-13T18:02:38.666Z,100856.22
2023-04-13T18:04:40.716Z,100852.81
2023-04-13T18:06:44.379Z,100858.44
2023-04-13T18:08:46.235Z,100860.53
2023-04-13T18:10:48.054Z,100864.22
2023-04-13T18:12:50.038Z,100865.41
2023-04-13T18:14:52.073Z,100871.06
2023-04-13T18:16:53.792Z,100880.28
2023-04-13T18:18:55.436Z,100877.09
2023-04-13T18:20:58.649Z,100877.47
2023-04-13T18:23:01.682Z,100877.88
2023-04-13T18:25:04.085Z,100887.53
2023-04-13T18:27:05.782Z,100896.13
2023-04-13T18:29:17.935Z,100896.50
2023-04-13T18:31:19.757Z,100898.78
2023-04-13T18:33:21.978Z,100898.06
2023-04-13T18:35:23.998Z,100909.97
2023-04-13T18:37:26.427Z,100914.16
2023-04-13T18:39:34.247Z,100906.00
2023-04-13T18:41:36.263Z,100903.00
2023-04-13T18:43:47.554Z,100916.84
2023-04-13T18:45:49.614Z,100914.69
2023-04-13T18:47:51.329Z,100918.59
2023-04-13T18:49:53.057Z,100916.78
2023-04-13T18:51:54.858Z,100915.00
2023-04-13T18:53:57.070Z,100913.41
2023-04-13T18:56:03.427Z,100917.09
2023-04-13T18:58:05.813Z,100913.63
2023-04-13T19:00:08.867Z,100924.44
2023-04-13T19:02:11.071Z,100919.06
2023-04-13T19:04:13.111Z,100915.56
2023-04-13T19:06:15.333Z,100930.16
2023-04-13T19:08:19.248Z,100922.63
2023-04-13T19:10:22.697Z,100923.56
2023-04-13T19:12:26.114Z,100922.81
2023-04-13T19:14:27.796Z,100920.97
2023-04-13T19:16:29.981Z,100917.25
2023-04-13T19:18:32.133Z,100914.81
2023-04-13T19:20:33.776Z,100920.59
2023-04-13T19:22:35.672Z,100925.75
2023-04-13T19:24:37.522Z,100926.13
2023-04-13T19:26:40.617Z,100929.22
2023-04-13T19:28:44.343Z,100930.19
2023-04-13T19:30:46.507Z,100934.72
2023-04-13T19:32:49.402Z,100936.72
2023-04-13T19:37:35.222Z,100927.81
2023-04-13T19:39:39.314Z,100927.91
2023-04-13T19:41:41.607Z,100932.97
2023-04-13T19:43:44.920Z,100938.94
2023-04-13T19:45:46.484Z,100939.19
2023-04-13T19:47:48.139Z,100945.72
2023-04-13T19:49:50.237Z,100948.72
2023-04-13T19:51:53.717Z,100949.78
2023-04-13T19:53:57.428Z,100951.31
2023-04-13T19:55:59.430Z,100954.06
2023-04-13T19:58:03.030Z,100961.44
2023-04-13T20:04:52.909Z,100968.22
2023-04-13T20:06:56.496Z,100971.38
2023-04-13T20:09:07.384Z,100977.25
2023-04-13T20:11:08.907Z,100974.94
2023-04-13T20:13:10.717Z,100981.66
2023-04-13T20:15:13.960Z,100983.75
2023-04-13T20:17:16.061Z,100988.38
2023-04-13T20:19:17.902Z,100986.88
2023-04-13T20:23:36.834Z,100999.28
2023-04-13T20:25:45.939Z,101000.53
2023-04-13T20:27:50.515Z,101007.25
2023-04-13T20:34:32.784Z,101005.13
2023-04-13T20:36:34.452Z,100999.25
2023-04-13T20:38:36.120Z,101004.28
2023-04-13T20:40:38.042Z,101008.28
2023-04-13T20:42:39.900Z,101011.81
2023-04-13T20:44:41.759Z,101013.50
2023-04-13T20:46:43.476Z,101016.44
2023-04-13T20:48:55.138Z,101019.16
2023-04-13T20:50:57.187Z,101025.41
2023-04-13T20:52:59.442Z,101034.22
2023-04-13T20:55:02.733Z,101026.44
2023-04-13T20:57:05.341Z,101027.88
2023-04-13T20:59:08.064Z,101039.44
2023-04-13T21:01:09.927Z,101037.31
2023-04-13T21:03:11.919Z,101039.38
2023-04-13T21:05:17.814Z,101038.94
2023-04-13T21:07:19.496Z,101044.81
2023-04-13T21:09:23.419Z,101046.25
2023-04-13T21:11:26.779Z,101038.50
2023-04-13T21:13:29.017Z,101040.81
2023-04-13T21:15:32.508Z,101042.25
2023-04-13T21:17:35.109Z,101047.06
2023-04-13T21:19:38.144Z,101038.88
2023-04-13T21:21:42.740Z,101047.44
2023-04-13T21:23:44.678Z,101045.13
2023-04-13T21:25:47.051Z,101045.53
2023-04-13T21:27:50.481Z,101048.66
2023-04-13T21:29:52.734Z,101050.94
2023-04-13T21:31:56.214Z,101045.91
2023-04-13T21:33:58.535Z,101041.91
2023-04-13T21:38:12.420Z,101046.47
2023-04-13T21:40:14.050Z,101037.88
2023-04-13T21:42:15.688Z,101039.31
2023-04-13T21:44:29.319Z,101037.81
2023-04-13T21:46:31.962Z,101028.59
2023-04-13T21:48:33.771Z,101036.31
2023-04-13T21:50:35.391Z,101037.75
2023-04-13T21:52:38.101Z,101041.91
2023-04-13T21:55:09.448Z,101036.28
2023-04-13T22:04:03.158Z,101043.25
2023-04-13T22:06:07.088Z,101041.78
2023-04-13T22:08:09.021Z,101044.88
2023-04-13T22:10:11.203Z,101045.94
2023-04-13T22:14:31.196Z,101041.09
2023-04-13T22:28:37.652Z,101040.25
2023-04-13T22:30:55.773Z,101038.50
2023-04-13T22:37:32.992Z,101033.97
2023-04-13T22:39:34.626Z,101038.94
2023-04-13T22:41:36.524Z,101031.84
2023-04-13T22:43:38.336Z,101032.03
2023-04-13T22:45:41.538Z,101029.50
2023-04-13T22:47:44.730Z,101027.84
2023-04-13T22:49:48.919Z,101026.53
2023-04-13T22:51:50.564Z,101026.72
2023-04-13T22:53:54.355Z,101026.94
2023-04-13T22:55:57.186Z,101032.38
2023-04-13T22:57:58.793Z,101031.53
2023-04-13T23:00:03.213Z,101028.81
2023-04-13T23:02:08.852Z,101039.66
2023-04-13T23:04:11.599Z,101026.28
2023-04-13T23:06:26.791Z,101033.56
2023-04-13T23:18:03.746Z,101031.63
2023-04-13T23:20:06.845Z,101036.16
2023-04-13T23:22:08.386Z,101041.59
2023-04-13T23:24:13.658Z,101036.72
2023-04-13T23:26:15.427Z,101034.00
2023-04-13T23:28:17.105Z,101038.81
2023-04-13T23:30:19.724Z,101037.97
2023-04-13T23:32:23.398Z,101041.69
2023-04-13T23:34:27.386Z,101046.28
2023-04-13T23:36:30.261Z,101047.53
2023-04-13T23:38:36.333Z,101055.00
2023-04-13T23:42:56.521Z,101060.81
2023-04-13T23:44:59.162Z,101054.91
2023-04-13T23:47:03.307Z,101055.94
2023-04-13T23:49:16.170Z,101057.19
2023-04-13T23:51:30.565Z,101067.19
2023-04-13T23:53:34.002Z,101069.44
2023-04-13T23:55:37.606Z,101071.50
2023-04-13T23:57:41.365Z,101064.78
2023-04-13T23:59:43.276Z,101064.78
